sensor_id;sensor_type;location;lat;lon;timestamp;pressure;altitude;pressure_sealevel;temperature;humidity
5691;BME280;2870;42.680;23.364;2023-02-14T00:01:21;96538.31;;;3.51;69.30
5691;BME280;2870;42.680;23.364;2023-02-14T00:03:48;96545.88;;;3.50;69.12
5691;BME280;2870;42.680;23.364;2023-02-14T00:06:16;96540.31;;;3.50;69.53
5691;BME280;2870;42.680;23.364;2023-02-14T00:08:43;96534.97;;;3.61;68.96
5691;BME280;2870;42.680;23.364;2023-02-14T00:11:10;96533.91;;;3.44;69.44
5691;BME280;2870;42.680;23.364;2023-02-14T00:13:38;96543.78;;;3.45;69.69
5691;BME280;2870;42.680;23.364;2023-02-14T00:16:26;96550.66;;;3.50;69.49
5691;BME280;2870;42.680;23.364;2023-02-14T00:18:52;96551.44;;;3.50;69.96
5691;BME280;2870;42.680;23.364;2023-02-14T00:21:32;96547.78;;;3.44;70.03
5691;BME280;2870;42.680;23.364;2023-02-14T00:24:00;96547.59;;;3.33;69.87
5691;BME280;2870;42.680;23.364;2023-02-14T00:26:28;96546.25;;;3.43;70.17
5691;BME280;2870;42.680;23.364;2023-02-14T00:28:54;96540.91;;;3.25;70.76
5691;BME280;2870;42.680;23.364;2023-02-14T00:31:22;96541.38;;;3.38;70.43
5691;BME280;2870;42.680;23.364;2023-02-14T00:33:50;96544.34;;;3.49;69.95
5691;BME280;2870;42.680;23.364;2023-02-14T00:36:18;96531.53;;;3.52;70.16
5691;BME280;2870;42.680;23.364;2023-02-14T00:38:45;96533.44;;;3.60;69.95
5691;BME280;2870;42.680;23.364;2023-02-14T00:41:12;96535.53;;;3.80;69.34
5691;BME280;2870;42.680;23.364;2023-02-14T00:43:44;96530.09;;;3.71;69.23
5691;BME280;2870;42.680;23.364;2023-02-14T00:46:11;96538.00;;;3.93;69.04
5691;BME280;2870;42.680;23.364;2023-02-14T00:48:38;96528.06;;;3.71;69.45
5691;BME280;2870;42.680;23.364;2023-02-14T00:51:06;96507.53;;;3.63;69.63
5691;BME280;2870;42.680;23.364;2023-02-14T00:53:34;96530.31;;;4.03;69.01
5691;BME280;2870;42.680;23.364;2023-02-14T00:56:02;96512.19;;;3.72;69.20
5691;BME280;2870;42.680;23.364;2023-02-14T00:58:29;96519.47;;;3.69;69.65
5691;BME280;2870;42.680;23.364;2023-02-14T01:00:56;96514.81;;;3.46;70.14
5691;BME280;2870;42.680;23.364;2023-02-14T01:03:23;96515.34;;;3.65;69.82
5691;BME280;2870;42.680;23.364;2023-02-14T01:05:50;96511.25;;;3.60;70.31
5691;BME280;2870;42.680;23.364;2023-02-14T01:08:18;96513.38;;;4.01;69.63
5691;BME280;2870;42.680;23.364;2023-02-14T01:10:45;96517.75;;;3.57;70.03
5691;BME280;2870;42.680;23.364;2023-02-14T01:13:13;96498.53;;;3.54;70.29
5691;BME280;2870;42.680;23.364;2023-02-14T01:15:42;96501.47;;;3.65;69.81
5691;BME280;2870;42.680;23.364;2023-02-14T01:18:09;96505.13;;;3.71;69.68
5691;BME280;2870;42.680;23.364;2023-02-14T01:20:36;96499.19;;;3.63;69.79
5691;BME280;2870;42.680;23.364;2023-02-14T01:23:03;96503.19;;;3.62;69.98
5691;BME280;2870;42.680;23.364;2023-02-14T01:25:31;96497.22;;;3.84;69.44
5691;BME280;2870;42.680;23.364;2023-02-14T01:27:58;96488.69;;;3.53;70.33
5691;BME280;2870;42.680;23.364;2023-02-14T01:30:25;96492.28;;;3.73;69.85
5691;BME280;2870;42.680;23.364;2023-02-14T01:32:52;96496.25;;;3.52;70.25
5691;BME280;2870;42.680;23.364;2023-02-14T01:35:19;96481.13;;;3.53;70.78
5691;BME280;2870;42.680;23.364;2023-02-14T01:37:46;96476.06;;;3.22;71.00
5691;BME280;2870;42.680;23.364;2023-02-14T01:40:13;96480.09;;;3.36;70.75
5691;BME280;2870;42.680;23.364;2023-02-14T01:42:42;96462.94;;;3.37;70.79
5691;BME280;2870;42.680;23.364;2023-02-14T01:45:16;96466.56;;;3.58;70.28
5691;BME280;2870;42.680;23.364;2023-02-14T01:47:45;96471.81;;;3.56;69.69
5691;BME280;2870;42.680;23.364;2023-02-14T01:50:15;96462.09;;;3.31;70.89
5691;BME280;2870;42.680;23.364;2023-02-14T01:52:46;96456.50;;;3.61;70.09
5691;BME280;2870;42.680;23.364;2023-02-14T01:55:18;96457.00;;;3.44;70.28
5691;BME280;2870;42.680;23.364;2023-02-14T01:57:49;96458.06;;;3.47;70.24
5691;BME280;2870;42.680;23.364;2023-02-14T02:03:03;96453.38;;;3.53;69.78
5691;BME280;2870;42.680;23.364;2023-02-14T02:05:31;96459.69;;;3.39;70.33
5691;BME280;2870;42.680;23.364;2023-02-14T02:07:59;96448.88;;;3.56;70.39
5691;BME280;2870;42.680;23.364;2023-02-14T02:10:26;96452.47;;;3.62;69.77
5691;BME280;2870;42.680;23.364;2023-02-14T02:12:55;96460.34;;;3.63;69.92
5691;BME280;2870;42.680;23.364;2023-02-14T02:15:26;96448.91;;;3.41;70.14
5691;BME280;2870;42.680;23.364;2023-02-14T02:18:01;96465.31;;;3.59;69.66
5691;BME280;2870;42.680;23.364;2023-02-14T02:21:01;96461.69;;;3.38;70.41
5691;BME280;2870;42.680;23.364;2023-02-14T02:24:02;96447.41;;;3.60;70.01
5691;BME280;2870;42.680;23.364;2023-02-14T02:27:04;96443.41;;;3.61;69.80
5691;BME280;2870;42.680;23.364;2023-02-14T02:33:14;96427.56;;;3.47;70.00
5691;BME280;2870;42.680;23.364;2023-02-14T02:36:06;96432.13;;;3.50;70.41
5691;BME280;2870;42.680;23.364;2023-02-14T02:38:47;96416.31;;;3.56;69.93
5691;BME280;2870;42.680;23.364;2023-02-14T02:41:22;96413.53;;;3.71;69.88
5691;BME280;2870;42.680;23.364;2023-02-14T02:43:58;96384.56;;;3.57;69.36
5691;BME280;2870;42.680;23.364;2023-02-14T02:46:33;96373.03;;;3.44;69.04
5691;BME280;2870;42.680;23.364;2023-02-14T02:49:23;96417.47;;;3.64;69.53
5691;BME280;2870;42.680;23.364;2023-02-14T02:52:15;96404.38;;;3.50;69.71
5691;BME280;2870;42.680;23.364;2023-02-14T02:55:05;96410.03;;;3.56;69.80
5691;BME280;2870;42.680;23.364;2023-02-14T02:57:38;96417.44;;;3.29;70.64
5691;BME280;2870;42.680;23.364;2023-02-14T03:00:09;96422.28;;;3.34;70.46
5691;BME280;2870;42.680;23.364;2023-02-14T03:02:40;96423.63;;;3.39;70.24
5691;BME280;2870;42.680;23.364;2023-02-14T03:05:21;96414.06;;;3.40;69.98
5691;BME280;2870;42.680;23.364;2023-02-14T03:07:50;96395.44;;;3.40;69.69
5691;BME280;2870;42.680;23.364;2023-02-14T03:10:19;96423.88;;;3.56;69.36
5691;BME280;2870;42.680;23.364;2023-02-14T03:15:46;96425.81;;;3.50;70.16
5691;BME280;2870;42.680;23.364;2023-02-14T03:21:27;96419.16;;;3.41;69.92
5691;BME280;2870;42.680;23.364;2023-02-14T03:24:04;96415.44;;;3.30;70.53
5691;BME280;2870;42.680;23.364;2023-02-14T03:26:38;96407.97;;;3.36;70.47
5691;BME280;2870;42.680;23.364;2023-02-14T03:29:14;96400.34;;;3.51;70.14
5691;BME280;2870;42.680;23.364;2023-02-14T03:31:54;96386.91;;;3.44;70.04
5691;BME280;2870;42.680;23.364;2023-02-14T03:34:27;96394.53;;;3.49;69.90
5691;BME280;2870;42.680;23.364;2023-02-14T03:36:59;96390.09;;;3.57;69.71
5691;BME280;2870;42.680;23.364;2023-02-14T03:39:35;96393.78;;;3.49;70.09
5691;BME280;2870;42.680;23.364;2023-02-14T03:42:07;96392.84;;;3.22;70.58
5691;BME280;2870;42.680;23.364;2023-02-14T03:44:37;96398.91;;;3.21;70.93
5691;BME280;2870;42.680;23.364;2023-02-14T03:47:09;96394.56;;;3.34;70.43
5691;BME280;2870;42.680;23.364;2023-02-14T03:49:40;96390.84;;;3.23;70.49
5691;BME280;2870;42.680;23.364;2023-02-14T03:52:10;96376.69;;;3.35;71.00
5691;BME280;2870;42.680;23.364;2023-02-14T03:54:39;96379.31;;;3.09;70.92
5691;BME280;2870;42.680;23.364;2023-02-14T03:57:12;96379.13;;;3.13;71.13
5691;BME280;2870;42.680;23.364;2023-02-14T03:59:41;96380.81;;;3.10;71.07
5691;BME280;2870;42.680;23.364;2023-02-14T04:02:10;96367.91;;;3.22;71.33
5691;BME280;2870;42.680;23.364;2023-02-14T04:04:43;96364.84;;;3.20;70.85
5691;BME280;2870;42.680;23.364;2023-02-14T04:07:11;96364.19;;;3.10;70.87
5691;BME280;2870;42.680;23.364;2023-02-14T04:09:40;96360.56;;;3.19;70.92
5691;BME280;2870;42.680;23.364;2023-02-14T04:12:07;96357.41;;;3.11;70.55
5691;BME280;2870;42.680;23.364;2023-02-14T04:14:35;96360.75;;;3.15;70.45
5691;BME280;2870;42.680;23.364;2023-02-14T04:17:03;96362.34;;;3.22;70.41
5691;BME280;2870;42.680;23.364;2023-02-14T04:19:48;96363.03;;;3.32;70.39
5691;BME280;2870;42.680;23.364;2023-02-14T04:22:15;96366.38;;;3.36;69.97
5691;BME280;2870;42.680;23.364;2023-02-14T04:24:43;96370.31;;;3.29;70.24
5691;BME280;2870;42.680;23.364;2023-02-14T04:27:10;96365.53;;;3.30;70.17
5691;BME280;2870;42.680;23.364;2023-02-14T04:29:39;96372.41;;;3.19;70.21
5691;BME280;2870;42.680;23.364;2023-02-14T04:32:08;96364.97;;;3.11;70.61
5691;BME280;2870;42.680;23.364;2023-02-14T04:34:36;96371.56;;;3.13;70.59
5691;BME280;2870;42.680;23.364;2023-02-14T04:37:03;96363.94;;;2.93;70.63
5691;BME280;2870;42.680;23.364;2023-02-14T04:39:30;96356.44;;;3.14;70.39
5691;BME280;2870;42.680;23.364;2023-02-14T04:41:58;96354.94;;;3.13;70.65
5691;BME280;2870;42.680;23.364;2023-02-14T04:44:25;96346.03;;;3.24;70.22
5691;BME280;2870;42.680;23.364;2023-02-14T04:46:52;96354.44;;;3.15;70.04
5691;BME280;2870;42.680;23.364;2023-02-14T04:49:19;96349.22;;;3.02;70.61
5691;BME280;2870;42.680;23.364;2023-02-14T04:51:47;96309.38;;;2.85;70.29
5691;BME280;2870;42.680;23.364;2023-02-14T04:54:13;96346.44;;;3.02;70.46
5691;BME280;2870;42.680;23.364;2023-02-14T04:56:40;96337.22;;;3.11;70.01
5691;BME280;2870;42.680;23.364;2023-02-14T04:59:09;96337.81;;;3.00;70.37
5691;BME280;2870;42.680;23.364;2023-02-14T05:01:35;96348.63;;;3.13;69.91
5691;BME280;2870;42.680;23.364;2023-02-14T05:04:03;96350.16;;;3.14;69.58
5691;BME280;2870;42.680;23.364;2023-02-14T05:06:30;96344.22;;;3.06;69.97
5691;BME280;2870;42.680;23.364;2023-02-14T05:08:57;96347.88;;;3.12;70.22
5691;BME280;2870;42.680;23.364;2023-02-14T05:11:24;96336.19;;;3.08;70.00
5691;BME280;2870;42.680;23.364;2023-02-14T05:13:50;96311.03;;;3.12;69.70
5691;BME280;2870;42.680;23.364;2023-02-14T05:16:19;96343.06;;;3.13;69.76
5691;BME280;2870;42.680;23.364;2023-02-14T05:18:46;96345.03;;;3.27;69.73
5691;BME280;2870;42.680;23.364;2023-02-14T05:21:12;96341.91;;;3.19;69.75
5691;BME280;2870;42.680;23.364;2023-02-14T05:23:40;96335.69;;;3.25;70.06
5691;BME280;2870;42.680;23.364;2023-02-14T05:26:07;96330.53;;;3.17;69.48
5691;BME280;2870;42.680;23.364;2023-02-14T05:28:34;96334.44;;;3.26;69.49
5691;BME280;2870;42.680;23.364;2023-02-14T05:31:01;96339.88;;;3.35;69.86
5691;BME280;2870;42.680;23.364;2023-02-14T05:33:29;96340.72;;;2.91;70.07
5691;BME280;2870;42.680;23.364;2023-02-14T05:35:57;96340.22;;;2.92;70.28
5691;BME280;2870;42.680;23.364;2023-02-14T05:38:25;96336.53;;;3.31;69.82
5691;BME280;2870;42.680;23.364;2023-02-14T05:40:51;96332.09;;;3.39;68.92
5691;BME280;2870;42.680;23.364;2023-02-14T05:43:18;96335.84;;;3.01;69.76
5691;BME280;2870;42.680;23.364;2023-02-14T05:45:45;96336.69;;;2.92;70.41
5691;BME280;2870;42.680;23.364;2023-02-14T05:48:12;96331.16;;;2.92;70.62
5691;BME280;2870;42.680;23.364;2023-02-14T05:50:40;96329.53;;;2.85;70.79
5691;BME280;2870;42.680;23.364;2023-02-14T05:53:07;96326.13;;;3.26;69.90
5691;BME280;2870;42.680;23.364;2023-02-14T05:55:34;96328.63;;;3.44;68.92
5691;BME280;2870;42.680;23.364;2023-02-14T05:58:01;96311.03;;;3.12;69.14
5691;BME280;2870;42.680;23.364;2023-02-14T06:00:28;96337.47;;;3.28;69.37
5691;BME280;2870;42.680;23.364;2023-02-14T06:02:55;96338.47;;;3.25;69.82
5691;BME280;2870;42.680;23.364;2023-02-14T06:05:22;96323.50;;;3.57;68.93
5691;BME280;2870;42.680;23.364;2023-02-14T06:07:50;96335.91;;;3.77;68.36
5691;BME280;2870;42.680;23.364;2023-02-14T06:10:18;96326.09;;;3.40;68.74
5691;BME280;2870;42.680;23.364;2023-02-14T06:12:47;96344.25;;;3.41;68.88
5691;BME280;2870;42.680;23.364;2023-02-14T06:15:15;96348.44;;;3.72;68.38
5691;BME280;2870;42.680;23.364;2023-02-14T06:17:42;96353.66;;;4.05;66.93
5691;BME280;2870;42.680;23.364;2023-02-14T06:20:10;96344.38;;;3.88;67.48
5691;BME280;2870;42.680;23.364;2023-02-14T06:22:37;96321.69;;;3.69;67.65
5691;BME280;2870;42.680;23.364;2023-02-14T06:25:06;96341.75;;;4.25;67.01
5691;BME280;2870;42.680;23.364;2023-02-14T06:27:33;96347.38;;;4.31;66.65
5691;BME280;2870;42.680;23.364;2023-02-14T06:30:00;96348.38;;;4.07;66.48
5691;BME280;2870;42.680;23.364;2023-02-14T06:32:27;96350.06;;;4.45;65.68
5691;BME280;2870;42.680;23.364;2023-02-14T06:34:54;96354.53;;;4.63;64.68
5691;BME280;2870;42.680;23.364;2023-02-14T06:37:21;96348.75;;;4.41;65.60
5691;BME280;2870;42.680;23.364;2023-02-14T06:39:48;96345.13;;;4.55;65.43
5691;BME280;2870;42.680;23.364;2023-02-14T06:42:16;96350.44;;;4.59;65.16
5691;BME280;2870;42.680;23.364;2023-02-14T06:44:43;96356.66;;;4.74;65.67
5691;BME280;2870;42.680;23.364;2023-02-14T06:47:10;96349.19;;;4.86;64.42
5691;BME280;2870;42.680;23.364;2023-02-14T06:49:36;96345.34;;;4.77;64.28
5691;BME280;2870;42.680;23.364;2023-02-14T06:52:04;96340.22;;;5.02;64.64
5691;BME280;2870;42.680;23.364;2023-02-14T06:54:31;96343.16;;;4.61;64.74
5691;BME280;2870;42.680;23.364;2023-02-14T06:56:58;96339.28;;;4.53;65.42
5691;BME280;2870;42.680;23.364;2023-02-14T06:59:27;96339.97;;;5.00;64.92
5691;BME280;2870;42.680;23.364;2023-02-14T07:01:54;96333.94;;;4.75;65.33
5691;BME280;2870;42.680;23.364;2023-02-14T07:04:21;96337.00;;;4.77;64.83
5691;BME280;2870;42.680;23.364;2023-02-14T07:06:47;96331.22;;;4.55;66.06
5691;BME280;2870;42.680;23.364;2023-02-14T07:09:15;96308.75;;;4.85;65.05
5691;BME280;2870;42.680;23.364;2023-02-14T07:11:43;96316.34;;;4.58;66.24
5691;BME280;2870;42.680;23.364;2023-02-14T07:14:10;96319.66;;;4.88;66.12
5691;BME280;2870;42.680;23.364;2023-02-14T07:16:38;96292.59;;;4.89;65.55
5691;BME280;2870;42.680;23.364;2023-02-14T07:19:05;96325.00;;;4.66;66.37
5691;BME280;2870;42.680;23.364;2023-02-14T07:21:32;96334.38;;;4.94;65.92
5691;BME280;2870;42.680;23.364;2023-02-14T07:23:59;96322.53;;;5.37;65.22
5691;BME280;2870;42.680;23.364;2023-02-14T07:26:26;96327.81;;;5.35;65.47
5691;BME280;2870;42.680;23.364;2023-02-14T07:28:53;96325.44;;;4.85;66.94
5691;BME280;2870;42.680;23.364;2023-02-14T07:31:20;96328.38;;;5.07;67.12
5691;BME280;2870;42.680;23.364;2023-02-14T07:33:49;96326.13;;;4.79;68.55
5691;BME280;2870;42.680;23.364;2023-02-14T07:36:16;96327.28;;;4.67;69.46
5691;BME280;2870;42.680;23.364;2023-02-14T07:38:42;96331.69;;;4.53;70.05
5691;BME280;2870;42.680;23.364;2023-02-14T07:41:09;96329.38;;;4.72;70.51
5691;BME280;2870;42.680;23.364;2023-02-14T07:43:36;96326.78;;;4.69;70.15
5691;BME280;2870;42.680;23.364;2023-02-14T07:46:04;96329.72;;;4.86;69.94
5691;BME280;2870;42.680;23.364;2023-02-14T07:48:31;96321.88;;;4.58;70.65
5691;BME280;2870;42.680;23.364;2023-02-14T07:50:59;96348.97;;;4.89;70.50
5691;BME280;2870;42.680;23.364;2023-02-14T07:53:26;96346.25;;;4.69;70.70
5691;BME280;2870;42.680;23.364;2023-02-14T07:55:54;96356.16;;;4.75;71.05
5691;BME280;2870;42.680;23.364;2023-02-14T07:58:21;96357.31;;;4.89;71.07
5691;BME280;2870;42.680;23.364;2023-02-14T08:00:48;96360.00;;;5.10;70.35
5691;BME280;2870;42.680;23.364;2023-02-14T08:03:16;96371.03;;;4.46;72.01
5691;BME280;2870;42.680;23.364;2023-02-14T08:05:42;96367.53;;;4.72;72.15
5691;BME280;2870;42.680;23.364;2023-02-14T08:08:11;96353.13;;;4.73;71.60
5691;BME280;2870;42.680;23.364;2023-02-14T08:10:38;96365.25;;;5.02;71.44
5691;BME280;2870;42.680;23.364;2023-02-14T08:13:05;96369.66;;;5.14;70.42
5691;BME280;2870;42.680;23.364;2023-02-14T08:15:33;96364.13;;;4.62;72.00
5691;BME280;2870;42.680;23.364;2023-02-14T08:18:18;96363.31;;;4.56;72.94
5691;BME280;2870;42.680;23.364;2023-02-14T08:20:46;96368.44;;;4.89;71.90
5691;BME280;2870;42.680;23.364;2023-02-14T08:23:15;96376.38;;;4.76;72.00
5691;BME280;2870;42.680;23.364;2023-02-14T08:25:42;96390.34;;;5.08;71.00
5691;BME280;2870;42.680;23.364;2023-02-14T08:28:09;96381.53;;;4.83;71.86
5691;BME280;2870;42.680;23.364;2023-02-14T08:30:37;96373.66;;;4.82;72.11
5691;BME280;2870;42.680;23.364;2023-02-14T08:33:04;96354.28;;;4.93;71.86
5691;BME280;2870;42.680;23.364;2023-02-14T08:35:32;96361.47;;;4.73;71.88
5691;BME280;2870;42.680;23.364;2023-02-14T08:37:59;96365.72;;;4.69;72.11
5691;BME280;2870;42.680;23.364;2023-02-14T08:40:28;96361.50;;;4.53;73.11
5691;BME280;2870;42.680;23.364;2023-02-14T08:42:55;96365.88;;;4.86;71.69
5691;BME280;2870;42.680;23.364;2023-02-14T08:45:22;96386.63;;;5.16;71.05
5691;BME280;2870;42.680;23.364;2023-02-14T08:47:49;96370.25;;;4.66;72.49
5691;BME280;2870;42.680;23.364;2023-02-14T08:50:17;96373.91;;;4.78;72.11
5691;BME280;2870;42.680;23.364;2023-02-14T08:52:44;96370.16;;;4.87;71.89
5691;BME280;2870;42.680;23.364;2023-02-14T08:55:12;96378.28;;;4.64;72.55
5691;BME280;2870;42.680;23.364;2023-02-14T08:57:40;96392.25;;;4.44;74.11
5691;BME280;2870;42.680;23.364;2023-02-14T09:00:08;96384.44;;;4.48;73.98
5691;BME280;2870;42.680;23.364;2023-02-14T09:02:35;96380.94;;;4.53;74.06
5691;BME280;2870;42.680;23.364;2023-02-14T09:05:02;96385.28;;;4.54;74.21
5691;BME280;2870;42.680;23.364;2023-02-14T09:07:30;96370.56;;;5.00;72.85
5691;BME280;2870;42.680;23.364;2023-02-14T09:09:57;96360.66;;;4.99;72.22
5691;BME280;2870;42.680;23.364;2023-02-14T09:12:24;96373.16;;;5.09;72.08
5691;BME280;2870;42.680;23.364;2023-02-14T09:14:52;96373.72;;;4.61;73.21
5691;BME280;2870;42.680;23.364;2023-02-14T09:17:19;96352.78;;;4.92;72.74
5691;BME280;2870;42.680;23.364;2023-02-14T09:19:46;96351.53;;;4.41;73.93
5691;BME280;2870;42.680;23.364;2023-02-14T09:22:13;96363.91;;;4.40;74.32
5691;BME280;2870;42.680;23.364;2023-02-14T09:24:40;96354.31;;;4.41;74.50
5691;BME280;2870;42.680;23.364;2023-02-14T09:27:07;96359.00;;;4.55;74.19
5691;BME280;2870;42.680;23.364;2023-02-14T09:29:33;96359.53;;;4.85;73.22
5691;BME280;2870;42.680;23.364;2023-02-14T09:32:02;96339.94;;;4.68;72.87
5691;BME280;2870;42.680;23.364;2023-02-14T09:34:29;96360.56;;;4.88;72.40
5691;BME280;2870;42.680;23.364;2023-02-14T09:37:15;96367.63;;;5.15;71.53
5691;BME280;2870;42.680;23.364;2023-02-14T09:39:59;96359.78;;;4.56;73.63
5691;BME280;2870;42.680;23.364;2023-02-14T09:42:37;96360.94;;;5.01;72.52
5691;BME280;2870;42.680;23.364;2023-02-14T09:45:09;96347.03;;;5.32;71.47
5691;BME280;2870;42.680;23.364;2023-02-14T09:47:43;96348.00;;;4.66;71.56
5691;BME280;2870;42.680;23.364;2023-02-14T09:50:16;96345.09;;;4.29;74.26
5691;BME280;2870;42.680;23.364;2023-02-14T09:52:46;96337.50;;;4.82;72.87
5691;BME280;2870;42.680;23.364;2023-02-14T09:55:15;96337.34;;;4.91;72.32
5691;BME280;2870;42.680;23.364;2023-02-14T09:57:48;96339.81;;;5.15;71.23
5691;BME280;2870;42.680;23.364;2023-02-14T10:00:28;96329.47;;;4.84;72.09
5691;BME280;2870;42.680;23.364;2023-02-14T10:03:02;96348.81;;;5.04;71.46
5691;BME280;2870;42.680;23.364;2023-02-14T10:05:37;96343.28;;;5.04;71.79
5691;BME280;2870;42.680;23.364;2023-02-14T10:08:22;96331.44;;;4.77;72.44
5691;BME280;2870;42.680;23.364;2023-02-14T10:11:00;96326.75;;;4.63;72.28
5691;BME280;2870;42.680;23.364;2023-02-14T10:13:32;96330.78;;;4.62;73.24
5691;BME280;2870;42.680;23.364;2023-02-14T10:16:08;96331.16;;;4.75;72.51
5691;BME280;2870;42.680;23.364;2023-02-14T10:18:41;96322.47;;;4.94;71.93
5691;BME280;2870;42.680;23.364;2023-02-14T10:21:15;96329.25;;;4.61;73.29
5691;BME280;2870;42.680;23.364;2023-02-14T10:23:50;96331.22;;;4.55;72.59
5691;BME280;2870;42.680;23.364;2023-02-14T10:26:23;96320.56;;;4.79;72.77
5691;BME280;2870;42.680;23.364;2023-02-14T10:28:51;96325.88;;;4.77;72.07
5691;BME280;2870;42.680;23.364;2023-02-14T10:31:20;96323.31;;;4.74;72.15
5691;BME280;2870;42.680;23.364;2023-02-14T10:33:52;96318.47;;;4.69;72.70
5691;BME280;2870;42.680;23.364;2023-02-14T10:36:38;96317.44;;;4.66;72.05
5691;BME280;2870;42.680;23.364;2023-02-14T10:39:21;96319.41;;;4.14;73.62
5691;BME280;2870;42.680;23.364;2023-02-14T10:41:57;96320.75;;;4.44;73.22
5691;BME280;2870;42.680;23.364;2023-02-14T10:44:38;96319.97;;;4.70;72.30
5691;BME280;2870;42.680;23.364;2023-02-14T10:47:23;96316.97;;;4.73;72.12
5691;BME280;2870;42.680;23.364;2023-02-14T10:50:00;96295.59;;;4.28;72.71
5691;BME280;2870;42.680;23.364;2023-02-14T10:52:37;96313.13;;;4.65;71.84
5691;BME280;2870;42.680;23.364;2023-02-14T10:55:11;96307.28;;;4.89;71.19
5691;BME280;2870;42.680;23.364;2023-02-14T10:57:43;96304.19;;;4.56;72.34
5691;BME280;2870;42.680;23.364;2023-02-14T11:00:18;96295.56;;;4.79;71.73
5691;BME280;2870;42.680;23.364;2023-02-14T11:02:46;96302.78;;;4.66;71.90
5691;BME280;2870;42.680;23.364;2023-02-14T11:05:24;96305.28;;;4.64;72.29
5691;BME280;2870;42.680;23.364;2023-02-14T11:07:53;96303.44;;;5.18;70.80
5691;BME280;2870;42.680;23.364;2023-02-14T11:10:25;96309.84;;;5.30;69.20
5691;BME280;2870;42.680;23.364;2023-02-14T11:12:54;96303.91;;;5.11;69.44
5691;BME280;2870;42.680;23.364;2023-02-14T11:15:24;96312.16;;;5.00;69.26
5691;BME280;2870;42.680;23.364;2023-02-14T11:18:08;96307.69;;;4.76;69.89
5691;BME280;2870;42.680;23.364;2023-02-14T11:20:37;96305.66;;;4.77;69.45
5691;BME280;2870;42.680;23.364;2023-02-14T11:23:17;96310.50;;;4.56;69.95
5691;BME280;2870;42.680;23.364;2023-02-14T11:25:50;96295.28;;;4.77;69.76
5691;BME280;2870;42.680;23.364;2023-02-14T11:28:20;96288.22;;;4.82;69.65
5691;BME280;2870;42.680;23.364;2023-02-14T11:30:48;96295.66;;;4.91;68.80
5691;BME280;2870;42.680;23.364;2023-02-14T11:33:29;96288.06;;;4.60;70.33
5691;BME280;2870;42.680;23.364;2023-02-14T11:36:01;96280.19;;;4.84;69.05
5691;BME280;2870;42.680;23.364;2023-02-14T11:38:31;96280.34;;;4.43;69.66
5691;BME280;2870;42.680;23.364;2023-02-14T11:41:00;96277.06;;;4.45;69.73
5691;BME280;2870;42.680;23.364;2023-02-14T11:43:32;96282.81;;;4.67;68.93
5691;BME280;2870;42.680;23.364;2023-02-14T11:46:26;96265.31;;;4.93;68.36
5691;BME280;2870;42.680;23.364;2023-02-14T11:48:57;96264.97;;;5.11;68.03
5691;BME280;2870;42.680;23.364;2023-02-14T11:51:30;96272.56;;;5.65;65.93
5691;BME280;2870;42.680;23.364;2023-02-14T11:54:00;96245.81;;;5.24;65.97
5691;BME280;2870;42.680;23.364;2023-02-14T11:56:48;96262.44;;;5.56;65.35
5691;BME280;2870;42.680;23.364;2023-02-14T11:59:27;96264.41;;;5.50;65.27
5691;BME280;2870;42.680;23.364;2023-02-14T12:01:57;96256.09;;;5.61;64.98
5691;BME280;2870;42.680;23.364;2023-02-14T12:04:31;96250.31;;;5.16;65.15
5691;BME280;2870;42.680;23.364;2023-02-14T12:07:18;96255.50;;;4.97;65.93
5691;BME280;2870;42.680;23.364;2023-02-14T12:09:47;96240.66;;;5.06;66.25
5691;BME280;2870;42.680;23.364;2023-02-14T12:12:30;96232.72;;;4.93;66.24
5691;BME280;2870;42.680;23.364;2023-02-14T12:15:17;96229.72;;;5.40;64.88
5691;BME280;2870;42.680;23.364;2023-02-14T12:17:48;96215.47;;;5.26;65.64
5691;BME280;2870;42.680;23.364;2023-02-14T12:20:22;96235.91;;;5.18;65.60
5691;BME280;2870;42.680;23.364;2023-02-14T12:23:00;96229.03;;;5.56;64.42
5691;BME280;2870;42.680;23.364;2023-02-14T12:25:38;96234.41;;;5.76;64.47
5691;BME280;2870;42.680;23.364;2023-02-14T12:28:11;96230.78;;;6.35;62.39
5691;BME280;2870;42.680;23.364;2023-02-14T12:30:39;96220.41;;;6.30;62.33
5691;BME280;2870;42.680;23.364;2023-02-14T12:33:15;96224.50;;;5.70;63.65
5691;BME280;2870;42.680;23.364;2023-02-14T12:35:49;96235.00;;;5.97;63.00
5691;BME280;2870;42.680;23.364;2023-02-14T12:38:25;96225.41;;;6.04;62.74
5691;BME280;2870;42.680;23.364;2023-02-14T12:41:04;96227.88;;;5.91;63.09
5691;BME280;2870;42.680;23.364;2023-02-14T12:43:45;96223.38;;;6.04;63.05
5691;BME280;2870;42.680;23.364;2023-02-14T12:49:24;96220.72;;;5.78;63.60
5691;BME280;2870;42.680;23.364;2023-02-14T12:52:03;96229.97;;;5.96;63.62
5691;BME280;2870;42.680;23.364;2023-02-14T12:54:43;96231.56;;;6.42;61.72
5691;BME280;2870;42.680;23.364;2023-02-14T12:57:25;96222.41;;;6.13;62.76
5691;BME280;2870;42.680;23.364;2023-02-14T13:00:09;96216.34;;;6.37;61.84
5691;BME280;2870;42.680;23.364;2023-02-14T13:05:52;96219.06;;;5.98;63.37
5691;BME280;2870;42.680;23.364;2023-02-14T13:08:30;96222.88;;;6.17;63.09
5691;BME280;2870;42.680;23.364;2023-02-14T13:11:09;96219.63;;;6.24;63.43
5691;BME280;2870;42.680;23.364;2023-02-14T13:13:50;96218.59;;;6.16;63.21
5691;BME280;2870;42.680;23.364;2023-02-14T13:16:24;96214.81;;;6.19;63.34
5691;BME280;2870;42.680;23.364;2023-02-14T13:18:59;96213.41;;;5.81;64.30
5691;BME280;2870;42.680;23.364;2023-02-14T13:21:33;96213.50;;;6.03;63.89
5691;BME280;2870;42.680;23.364;2023-02-14T13:24:12;96205.66;;;6.02;64.59
5691;BME280;2870;42.680;23.364;2023-02-14T13:26:44;96206.94;;;6.23;63.66
5691;BME280;2870;42.680;23.364;2023-02-14T13:29:18;96207.41;;;6.05;63.77
5691;BME280;2870;42.680;23.364;2023-02-14T13:31:48;96215.19;;;5.90;64.93
5691;BME280;2870;42.680;23.364;2023-02-14T13:34:25;96201.00;;;5.76;65.02
5691;BME280;2870;42.680;23.364;2023-02-14T13:36:56;96208.44;;;5.37;66.15
5691;BME280;2870;42.680;23.364;2023-02-14T13:39:28;96188.97;;;5.42;66.52
5691;BME280;2870;42.680;23.364;2023-02-14T13:41:59;96203.97;;;5.56;66.44
5691;BME280;2870;42.680;23.364;2023-02-14T13:44:42;96211.09;;;5.68;66.09
5691;BME280;2870;42.680;23.364;2023-02-14T13:47:15;96207.63;;;5.25;67.31
5691;BME280;2870;42.680;23.364;2023-02-14T13:49:46;96208.22;;;5.40;67.58
5691;BME280;2870;42.680;23.364;2023-02-14T13:52:37;96210.31;;;5.62;66.63
5691;BME280;2870;42.680;23.364;2023-02-14T13:55:06;96218.41;;;5.60;66.53
5691;BME280;2870;42.680;23.364;2023-02-14T13:57:36;96215.91;;;5.62;66.51
5691;BME280;2870;42.680;23.364;2023-02-14T14:00:35;96223.03;;;5.80;66.33
5691;BME280;2870;42.680;23.364;2023-02-14T14:03:03;96218.72;;;5.73;65.75